createdAt,value
2019-02-05T00:02:15.945Z,14.13
2019-02-05T00:04:46.204Z,14.87
2019-02-05T00:07:16.692Z,14.10
2019-02-05T00:09:47.162Z,13.90
2019-02-05T00:12:17.714Z,15.63
2019-02-05T00:14:48.098Z,12.97
2019-02-05T00:17:18.633Z,13.60
2019-02-05T00:19:48.906Z,13.97
2019-02-05T00:22:19.200Z,16.10
2019-02-05T00:24:49.480Z,15.85
2019-02-05T00:27:19.737Z,17.47
2019-02-05T00:29:50.073Z,15.33
2019-02-05T00:32:20.621Z,14.73
2019-02-05T00:34:50.890Z,14.83
2019-02-05T00:37:21.605Z,13.58
2019-02-05T00:39:51.906Z,14.40
2019-02-05T00:42:22.489Z,14.77
2019-02-05T00:44:52.765Z,14.43
2019-02-05T00:47:23.005Z,15.27
2019-02-05T00:49:53.355Z,15.83
2019-02-05T00:52:23.609Z,15.18
2019-02-05T00:54:53.886Z,17.90
2019-02-05T00:57:24.249Z,16.17
2019-02-05T00:59:54.741Z,15.37
2019-02-05T01:02:24.998Z,17.23
2019-02-05T01:04:55.595Z,18.10
2019-02-05T01:07:26.141Z,15.50
2019-02-05T01:09:56.525Z,17.80
2019-02-05T01:12:27.209Z,17.32
2019-02-05T01:14:57.783Z,19.60
2019-02-05T01:17:29.548Z,17.40
2019-02-05T01:20:00.096Z,18.30
2019-02-05T01:22:30.443Z,15.78
2019-02-05T01:25:00.758Z,17.60
2019-02-05T01:27:31.319Z,18.87
2019-02-05T01:30:01.577Z,18.17
2019-02-05T01:32:31.798Z,16.80
2019-02-05T01:35:02.081Z,18.23
2019-02-05T01:37:32.347Z,17.07
2019-02-05T01:40:03.059Z,16.80
2019-02-05T01:42:33.331Z,17.13
2019-02-05T01:45:04.250Z,19.13
2019-02-05T01:47:34.745Z,17.90
2019-02-05T01:50:05.883Z,17.02
2019-02-05T01:52:36.169Z,17.10
2019-02-05T01:55:09.030Z,19.73
2019-02-05T01:57:39.699Z,19.33
2019-02-05T02:00:14.615Z,20.23
2019-02-05T02:02:45.155Z,21.03
2019-02-05T02:05:15.560Z,21.45
2019-02-05T02:07:45.907Z,20.70
2019-02-05T02:10:22.989Z,20.20
2019-02-05T02:12:53.404Z,24.00
2019-02-05T02:15:23.671Z,21.73
2019-02-05T02:17:54.226Z,20.27
2019-02-05T02:20:24.808Z,20.30
2019-02-05T02:22:55.743Z,20.83
2019-02-05T02:25:26.217Z,20.57
2019-02-05T02:27:56.786Z,22.40
2019-02-05T02:30:33.794Z,24.53
2019-02-05T02:33:04.143Z,21.27
2019-02-05T02:35:34.771Z,21.40
2019-02-05T02:38:05.477Z,19.77
2019-02-05T02:40:36.175Z,22.83
2019-02-05T02:43:06.524Z,21.07
2019-02-05T02:45:36.861Z,22.60
2019-02-05T02:48:07.172Z,24.50
2019-02-05T02:50:37.407Z,24.23
2019-02-05T02:53:08.010Z,21.37
2019-02-05T02:55:38.258Z,22.55
2019-02-05T02:58:08.532Z,25.15
2019-02-05T03:00:38.868Z,21.23
2019-02-05T03:03:09.555Z,22.47
2019-02-05T03:05:39.811Z,21.13
2019-02-05T03:08:10.162Z,22.13
2019-02-05T03:10:40.441Z,22.63
2019-02-05T03:13:11.001Z,22.73
2019-02-05T03:15:41.693Z,24.93
2019-02-05T03:18:16.272Z,22.93
2019-02-05T03:20:46.530Z,24.67
2019-02-05T03:23:16.833Z,22.07
2019-02-05T03:25:47.063Z,24.20
2019-02-05T03:28:17.350Z,24.67
2019-02-05T03:30:47.649Z,21.60
2019-02-05T03:33:17.917Z,21.93
2019-02-05T03:35:48.229Z,23.95
2019-02-05T03:38:18.560Z,25.10
2019-02-05T03:41:08.610Z,21.60
2019-02-05T03:43:45.183Z,24.97
2019-02-05T03:46:17.209Z,23.83
2019-02-05T03:48:49.733Z,23.37
2019-02-05T03:52:05.781Z,23.53
2019-02-05T03:55:57.451Z,24.95
2019-02-05T03:59:08.449Z,25.73
2019-02-05T04:02:54.277Z,24.27
2019-02-05T04:06:12.815Z,24.37
2019-02-05T04:09:47.505Z,27.30
2019-02-05T04:13:12.794Z,26.57
2019-02-05T04:16:30.193Z,24.55
2019-02-05T04:19:33.244Z,23.33
2019-02-05T04:23:00.628Z,23.77
2019-02-05T04:26:13.456Z,26.77
2019-02-05T04:29:59.396Z,23.67
2019-02-05T04:33:08.994Z,30.67
2019-02-05T04:36:17.397Z,25.33
2019-02-05T04:39:47.126Z,28.13
2019-02-05T04:43:02.919Z,27.52
2019-02-05T04:46:40.196Z,27.60
2019-02-05T04:50:38.406Z,26.37
2019-02-05T04:53:48.412Z,27.90
2019-02-05T04:57:19.553Z,26.77
2019-02-05T05:00:37.672Z,31.33
2019-02-05T05:03:50.937Z,29.63
2019-02-05T05:07:08.164Z,29.33
2019-02-05T05:09:58.922Z,27.97
2019-02-05T05:12:32.841Z,28.20
2019-02-05T05:15:04.592Z,31.33
2019-02-05T05:17:34.966Z,29.03
2019-02-05T05:20:07.348Z,31.20
2019-02-05T05:22:38.522Z,31.20
2019-02-05T05:25:11.648Z,32.33
2019-02-05T05:27:42.235Z,33.03
2019-02-05T05:30:17.449Z,31.27
2019-02-05T05:32:47.759Z,30.37
2019-02-05T05:35:18.301Z,30.03
2019-02-05T05:37:48.908Z,31.77
2019-02-05T05:40:19.216Z,32.17
2019-02-05T05:42:49.483Z,31.40
2019-02-05T05:45:19.820Z,33.80
2019-02-05T05:47:50.100Z,34.63
2019-02-05T05:50:21.321Z,33.45
2019-02-05T05:52:52.297Z,36.13
2019-02-05T05:55:22.572Z,39.77
2019-02-05T05:57:52.859Z,34.43
2019-02-05T06:00:23.216Z,42.03
2019-02-05T06:02:53.439Z,37.10
2019-02-05T06:05:24.025Z,37.87
2019-02-05T06:07:54.966Z,36.83
2019-02-05T06:10:25.246Z,36.30
2019-02-05T06:12:55.542Z,40.53
2019-02-05T06:15:26.311Z,41.43
2019-02-05T06:17:56.658Z,37.67
2019-02-05T06:20:27.580Z,35.10
2019-02-05T06:22:58.109Z,33.60
2019-02-05T06:25:28.440Z,36.85
2019-02-05T06:27:58.691Z,35.50
2019-02-05T06:30:29.075Z,38.33
2019-02-05T06:32:59.363Z,41.50
2019-02-05T06:35:30.027Z,34.37
2019-02-05T06:38:00.365Z,33.70
2019-02-05T06:40:30.666Z,33.87
2019-02-05T06:43:00.941Z,38.40
2019-02-05T06:45:31.314Z,36.37
2019-02-05T06:48:01.679Z,37.60
2019-02-05T06:50:31.934Z,41.10
2019-02-05T06:53:02.340Z,40.67
2019-02-05T06:55:32.881Z,38.33
2019-02-05T06:58:03.197Z,38.40
2019-02-05T07:00:33.522Z,37.30
2019-02-05T07:03:03.801Z,40.47
2019-02-05T07:05:34.551Z,41.67
2019-02-05T07:08:05.398Z,38.33
2019-02-05T07:10:35.705Z,38.60
2019-02-05T07:13:06.279Z,46.70
2019-02-05T07:15:36.569Z,41.90
2019-02-05T07:18:07.007Z,44.37
2019-02-05T07:20:37.946Z,46.53
2019-02-05T07:23:08.336Z,43.30
2019-02-05T07:25:38.700Z,41.50
2019-02-05T07:28:09.404Z,45.67
2019-02-05T07:30:39.738Z,45.40
2019-02-05T07:33:10.051Z,43.23
2019-02-05T07:35:40.810Z,45.53
2019-02-05T07:38:11.208Z,48.60
2019-02-05T07:40:42.694Z,41.73
2019-02-05T07:43:13.443Z,44.77
2019-02-05T07:45:43.735Z,46.63
2019-02-05T07:48:14.006Z,42.70
2019-02-05T07:50:44.534Z,47.17
2019-02-05T07:53:14.865Z,46.27
2019-02-05T07:55:45.834Z,44.73
2019-02-05T07:58:16.317Z,43.90
2019-02-05T08:00:46.654Z,43.40
2019-02-05T08:03:17.011Z,39.00
2019-02-05T08:05:47.450Z,41.53
2019-02-05T08:08:17.804Z,43.75
2019-02-05T08:10:48.116Z,42.55
2019-02-05T08:13:18.472Z,45.80
2019-02-05T08:15:48.829Z,41.53
2019-02-05T08:18:19.142Z,47.53
2019-02-05T08:20:49.539Z,45.57
2019-02-05T08:23:19.950Z,53.33
2019-02-05T08:25:50.301Z,52.40
2019-02-05T08:28:20.573Z,50.80
2019-02-05T08:30:51.113Z,48.30
2019-02-05T08:33:21.443Z,53.20
2019-02-05T08:35:51.851Z,49.63
2019-02-05T08:38:22.213Z,45.93
2019-02-05T08:40:52.517Z,45.75
2019-02-05T08:43:22.819Z,50.03
2019-02-05T08:45:56.615Z,48.00
2019-02-05T08:48:25.245Z,46.67
2019-02-05T08:50:55.623Z,44.00
2019-02-05T08:53:25.861Z,47.90
2019-02-05T08:55:56.347Z,43.17
2019-02-05T08:58:31.091Z,43.00
2019-02-05T09:00:58.961Z,41.10
2019-02-05T09:03:29.320Z,46.40
2019-02-05T09:05:59.694Z,42.00
2019-02-05T09:08:30.049Z,44.17
2019-02-05T09:11:00.616Z,43.07
2019-02-05T09:13:30.856Z,48.90
2019-02-05T09:16:01.163Z,45.80
2019-02-05T09:18:31.920Z,45.30
2019-02-05T09:21:02.231Z,48.30
2019-02-05T09:23:32.500Z,43.40
2019-02-05T09:26:02.853Z,50.07
2019-02-05T09:28:33.216Z,50.33
2019-02-05T09:31:03.591Z,42.20
2019-02-05T09:33:33.898Z,46.43
2019-02-05T09:36:04.164Z,44.23
2019-02-05T09:38:34.509Z,41.18
2019-02-05T09:41:04.928Z,46.73
2019-02-05T09:43:35.302Z,42.10
2019-02-05T09:46:05.710Z,45.53
2019-02-05T09:48:36.113Z,40.30
2019-02-05T09:51:06.653Z,40.07
2019-02-05T09:53:37.221Z,41.00
2019-02-05T09:56:07.518Z,40.10
2019-02-05T09:58:37.883Z,39.73
2019-02-05T10:01:08.566Z,41.80
2019-02-05T10:03:38.799Z,42.90
2019-02-05T10:06:09.222Z,35.77
2019-02-05T10:08:39.511Z,39.17
2019-02-05T10:11:09.850Z,38.73
2019-02-05T10:13:40.192Z,39.60
2019-02-05T10:16:10.560Z,40.93
2019-02-05T10:18:45.742Z,40.97
2019-02-05T10:21:15.852Z,39.10
2019-02-05T10:23:46.443Z,38.07
2019-02-05T10:26:16.778Z,43.03
2019-02-05T10:28:47.168Z,39.13
2019-02-05T10:31:17.401Z,36.45
2019-02-05T10:33:54.838Z,38.40
2019-02-05T10:36:19.823Z,36.57
2019-02-05T10:38:50.328Z,40.50
2019-02-05T10:41:20.597Z,37.93
2019-02-05T10:43:50.996Z,39.38
2019-02-05T10:46:21.313Z,45.00
2019-02-05T10:48:51.611Z,35.57
2019-02-05T10:51:22.463Z,40.37
2019-02-05T10:53:53.116Z,41.83
2019-02-05T10:56:23.346Z,42.90
2019-02-05T10:58:53.688Z,43.90
2019-02-05T11:01:23.988Z,39.20
2019-02-05T11:03:54.303Z,39.45
2019-02-05T11:06:25.046Z,42.20
2019-02-05T11:08:55.995Z,40.90
2019-02-05T11:11:26.407Z,39.47
2019-02-05T11:13:56.760Z,40.97
2019-02-05T11:16:27.176Z,39.73
2019-02-05T11:18:58.819Z,39.07
2019-02-05T11:21:29.446Z,42.37
2019-02-05T11:24:00.032Z,39.87
2019-02-05T11:26:30.393Z,38.80
2019-02-05T11:29:00.782Z,37.85
2019-02-05T11:31:31.063Z,37.67
2019-02-05T11:34:01.363Z,37.30
2019-02-05T11:36:31.822Z,37.33
2019-02-05T11:39:02.470Z,35.30
2019-02-05T11:41:32.696Z,34.37
2019-02-05T11:44:03.024Z,39.10
2019-02-05T11:46:33.351Z,36.57
2019-02-05T11:49:03.597Z,35.93
2019-02-05T11:51:34.018Z,32.35
2019-02-05T11:54:04.893Z,36.30
2019-02-05T11:56:35.192Z,34.67
2019-02-05T11:59:05.614Z,36.33
2019-02-05T12:01:39.123Z,37.43
2019-02-05T12:04:08.587Z,37.47
2019-02-05T12:06:39.196Z,36.33
2019-02-05T12:09:23.694Z,37.80
2019-02-05T12:11:54.016Z,37.40
2019-02-05T12:14:24.486Z,36.25
2019-02-05T12:16:54.799Z,37.03
2019-02-05T12:19:25.197Z,34.70
2019-02-05T12:21:55.967Z,31.03
2019-02-05T12:24:26.203Z,34.03
2019-02-05T12:26:56.417Z,31.10
2019-02-05T12:29:26.771Z,35.83
2019-02-05T12:31:57.023Z,33.83
2019-02-05T12:34:27.318Z,32.87
2019-02-05T12:36:57.911Z,35.47
2019-02-05T12:39:28.160Z,29.87
2019-02-05T12:41:58.378Z,30.53
2019-02-05T12:44:29.043Z,30.93
2019-02-05T12:46:59.278Z,37.97
2019-02-05T12:49:29.867Z,32.53
2019-02-05T12:52:00.605Z,33.50
2019-02-05T12:54:31.072Z,31.25
2019-02-05T12:57:01.370Z,34.10
2019-02-05T12:59:32.283Z,32.17
2019-02-05T13:02:02.523Z,30.90
2019-02-05T13:04:32.779Z,30.27
2019-02-05T13:07:03.150Z,32.87
2019-02-05T13:09:33.410Z,30.20
2019-02-05T13:12:04.324Z,31.07
2019-02-05T13:14:34.772Z,36.35
2019-02-05T13:17:05.581Z,28.10
2019-02-05T13:19:35.972Z,30.70
2019-02-05T13:22:06.262Z,28.17
2019-02-05T13:24:36.837Z,27.63
2019-02-05T13:27:07.216Z,30.70
2019-02-05T13:29:37.419Z,27.83
2019-02-05T13:32:07.991Z,25.17
2019-02-05T13:34:38.509Z,27.80
2019-02-05T13:37:08.783Z,26.55
2019-02-05T13:39:39.090Z,29.13
2019-02-05T13:42:09.391Z,29.70
2019-02-05T13:44:39.707Z,27.53
2019-02-05T13:47:09.945Z,26.23
2019-02-05T13:49:40.546Z,24.90
2019-02-05T13:52:10.915Z,25.47
2019-02-05T13:54:41.243Z,28.33
2019-02-05T13:57:11.843Z,30.87
2019-02-05T13:59:42.403Z,30.63
2019-02-05T14:02:12.682Z,26.23
2019-02-05T14:04:43.077Z,30.90
2019-02-05T14:07:13.703Z,31.65
2019-02-05T14:09:43.945Z,32.07
2019-02-05T14:12:14.243Z,28.27
2019-02-05T14:14:44.629Z,27.23
2019-02-05T14:17:14.961Z,27.63
2019-02-05T14:19:45.245Z,26.40
2019-02-05T14:22:15.610Z,25.88
2019-02-05T14:24:45.890Z,28.10
2019-02-05T14:27:16.194Z,26.83
2019-02-05T14:29:46.513Z,28.87
2019-02-05T14:32:18.603Z,25.72
2019-02-05T14:34:48.858Z,27.83
2019-02-05T14:37:19.269Z,25.77
2019-02-05T14:39:49.576Z,30.53
2019-02-05T14:42:20.168Z,25.80
2019-02-05T14:44:50.595Z,23.60
2019-02-05T14:47:20.897Z,27.27
2019-02-05T14:49:51.130Z,25.47
2019-02-05T14:52:21.471Z,27.67
2019-02-05T14:54:53.523Z,26.77
2019-02-05T14:57:23.792Z,26.00
2019-02-05T14:59:54.451Z,25.17
2019-02-05T15:02:24.743Z,29.20
2019-02-05T15:04:54.981Z,30.17
2019-02-05T15:07:25.382Z,28.50
2019-02-05T15:09:55.703Z,30.53
2019-02-05T15:12:26.036Z,25.07
2019-02-05T15:14:56.512Z,32.53
2019-02-05T15:17:26.758Z,30.13
2019-02-05T15:19:58.240Z,28.73
2019-02-05T15:22:29.328Z,28.00
2019-02-05T15:25:00.250Z,26.67
2019-02-05T15:27:30.541Z,28.25
2019-02-05T15:30:01.082Z,28.40
2019-02-05T15:32:51.027Z,26.37
2019-02-05T15:35:21.512Z,27.57
2019-02-05T15:37:52.101Z,30.97
2019-02-05T15:40:22.422Z,25.90
2019-02-05T15:42:53.551Z,29.40
2019-02-05T15:45:24.357Z,29.17
2019-02-05T15:47:54.624Z,26.97
2019-02-05T15:50:25.030Z,25.73
2019-02-05T15:52:55.347Z,30.43
2019-02-05T15:55:25.750Z,30.77
2019-02-05T15:57:56.049Z,27.53
2019-02-05T16:00:26.779Z,29.60
2019-02-05T16:02:57.066Z,30.67
2019-02-05T16:05:27.449Z,33.03
2019-02-05T16:07:57.750Z,30.23
2019-02-05T16:10:29.143Z,31.07
2019-02-05T16:13:02.804Z,33.23
2019-02-05T16:15:32.711Z,30.53
2019-02-05T16:18:03.080Z,31.60
2019-02-05T16:20:33.445Z,35.03
2019-02-05T16:23:03.786Z,30.53
2019-02-05T16:25:34.216Z,31.42
2019-02-05T16:28:04.861Z,34.53
2019-02-05T16:30:35.118Z,31.93
2019-02-05T16:33:05.345Z,32.67
2019-02-05T16:35:35.717Z,39.10
2019-02-05T16:38:06.470Z,31.73
2019-02-05T16:40:37.139Z,34.97
2019-02-05T16:43:07.602Z,35.10
2019-02-05T16:45:37.864Z,33.87
2019-02-05T16:48:09.411Z,36.03
2019-02-05T16:50:43.024Z,36.30
2019-02-05T16:53:19.717Z,40.50
2019-02-05T16:55:55.680Z,41.18
2019-02-05T16:58:31.771Z,43.60
2019-02-05T17:01:02.239Z,43.63
2019-02-05T17:03:32.481Z,41.47
2019-02-05T17:06:02.995Z,49.27
2019-02-05T17:08:33.286Z,45.87
2019-02-05T17:11:03.580Z,46.68
2019-02-05T17:13:34.044Z,51.93
2019-02-05T17:16:04.432Z,50.03
2019-02-05T17:18:35.107Z,45.93
2019-02-05T17:21:06.177Z,49.90
2019-02-05T17:23:36.629Z,53.10
2019-02-05T17:26:07.258Z,49.90
2019-02-05T17:28:37.667Z,49.63
2019-02-05T17:31:08.105Z,48.03
2019-02-05T17:33:38.411Z,50.40
2019-02-05T17:36:08.886Z,45.60
2019-02-05T17:38:39.178Z,55.07
2019-02-05T17:41:09.520Z,53.53
2019-02-05T17:43:40.097Z,53.50
2019-02-05T17:46:10.586Z,57.37
2019-02-05T17:48:40.929Z,51.10
2019-02-05T17:51:11.304Z,56.00
2019-02-05T17:53:41.653Z,61.20
2019-02-05T17:56:11.971Z,57.90
2019-02-05T17:58:42.306Z,58.40
2019-02-05T18:01:14.299Z,53.23
2019-02-05T18:03:44.935Z,57.47
2019-02-05T18:06:15.303Z,54.27
2019-02-05T18:08:45.805Z,59.17
2019-02-05T18:11:17.319Z,54.70
2019-02-05T18:13:49.062Z,60.17
2019-02-05T18:16:21.117Z,53.08
2019-02-05T18:18:51.685Z,58.28
2019-02-05T18:21:22.035Z,65.57
2019-02-05T18:23:52.286Z,60.20
2019-02-05T18:26:23.177Z,59.47
2019-02-05T18:28:53.507Z,55.17
2019-02-05T18:31:23.736Z,58.60
2019-02-05T18:33:54.108Z,54.73
2019-02-05T18:36:24.676Z,57.80
2019-02-05T18:38:55.317Z,55.03
2019-02-05T18:41:25.667Z,52.93
2019-02-05T18:43:55.957Z,58.33
2019-02-05T18:46:26.242Z,54.18
2019-02-05T18:49:04.674Z,61.97
2019-02-05T18:51:28.612Z,55.07
2019-02-05T18:54:00.167Z,56.37
2019-02-05T18:56:30.528Z,55.70
2019-02-05T18:59:00.828Z,57.90
2019-02-05T19:01:31.086Z,61.33
2019-02-05T19:04:01.713Z,55.17
2019-02-05T19:06:31.917Z,62.93
2019-02-05T19:09:02.258Z,58.60
2019-02-05T19:11:33.017Z,57.27
2019-02-05T19:14:04.202Z,59.67
2019-02-05T19:16:34.844Z,57.83
2019-02-05T19:19:14.667Z,56.42
2019-02-05T19:21:37.736Z,55.97
2019-02-05T19:24:26.893Z,57.93
2019-02-05T19:26:57.500Z,60.33
2019-02-05T19:29:27.733Z,66.60
2019-02-05T19:31:58.037Z,59.77
2019-02-05T19:34:28.552Z,67.92
2019-02-05T19:36:58.821Z,61.13
2019-02-05T19:39:29.123Z,64.37
2019-02-05T19:41:59.433Z,68.47
2019-02-05T19:44:35.577Z,64.85
2019-02-05T19:47:09.001Z,70.37
2019-02-05T19:49:45.228Z,74.60
2019-02-05T19:52:15.488Z,76.77
2019-02-05T19:54:45.811Z,78.70
2019-02-05T19:57:16.111Z,73.37
2019-02-05T19:59:46.709Z,70.87
2019-02-05T20:02:16.953Z,66.13
2019-02-05T20:04:47.475Z,66.97
2019-02-05T20:07:17.778Z,64.50
2019-02-05T20:09:48.105Z,61.20
2019-02-05T20:12:18.437Z,65.13
2019-02-05T20:14:48.903Z,63.53
2019-02-05T20:17:19.255Z,65.13
2019-02-05T20:19:49.887Z,63.07
2019-02-05T20:22:21.620Z,64.27
2019-02-05T20:24:52.206Z,60.35
2019-02-05T20:27:22.414Z,55.70
2019-02-05T20:29:52.717Z,56.43
2019-02-05T20:32:23.007Z,59.93
2019-02-05T20:34:55.410Z,60.10
2019-02-05T20:37:26.055Z,55.23
2019-02-05T20:39:56.290Z,62.60
2019-02-05T20:42:26.904Z,64.10
2019-02-05T20:44:57.649Z,62.33
2019-02-05T20:47:27.984Z,66.00
2019-02-05T20:49:58.299Z,65.42
2019-02-05T20:52:28.666Z,62.13
2019-02-05T20:54:59.447Z,65.87
2019-02-05T20:57:29.733Z,59.83
2019-02-05T21:00:00.048Z,65.25
2019-02-05T21:02:30.262Z,62.67
2019-02-05T21:05:00.447Z,64.93
2019-02-05T21:07:30.952Z,59.83
2019-02-05T21:10:01.315Z,65.30
2019-02-05T21:12:31.750Z,59.73
2019-02-05T21:15:02.057Z,65.50
2019-02-05T21:17:33.035Z,68.83
2019-02-05T21:20:03.581Z,64.27
2019-02-05T21:22:33.901Z,63.03
2019-02-05T21:25:04.485Z,68.73
2019-02-05T21:27:35.206Z,68.50
2019-02-05T21:30:08.615Z,65.23
2019-02-05T21:32:38.899Z,79.07
2019-02-05T21:35:10.297Z,71.40
2019-02-05T21:37:40.607Z,62.75
2019-02-05T21:40:18.687Z,63.10
2019-02-05T21:42:49.306Z,68.60
2019-02-05T21:45:21.575Z,65.83
2019-02-05T21:47:51.927Z,62.40
2019-02-05T21:50:23.438Z,66.83
2019-02-05T21:52:53.847Z,67.37
2019-02-05T21:55:24.117Z,63.27
2019-02-05T21:57:54.553Z,64.20
2019-02-05T22:00:30.160Z,65.50
2019-02-05T22:03:00.584Z,64.62
2019-02-05T22:05:31.128Z,72.00
2019-02-05T22:08:02.247Z,66.73
2019-02-05T22:10:32.566Z,59.87
2019-02-05T22:13:03.188Z,67.43
2019-02-05T22:15:34.031Z,75.27
2019-02-05T22:18:04.420Z,65.93
2019-02-05T22:20:35.094Z,63.78
2019-02-05T22:23:05.531Z,63.30
2019-02-05T22:25:35.828Z,62.17
2019-02-05T22:28:06.600Z,58.63
2019-02-05T22:30:37.370Z,65.17
2019-02-05T22:33:08.648Z,62.60
2019-02-05T22:35:38.969Z,68.77
2019-02-05T22:38:09.439Z,58.90
2019-02-05T22:40:39.714Z,61.70
2019-02-05T22:43:10.370Z,61.47
2019-02-05T22:45:41.242Z,62.27
2019-02-05T22:48:11.577Z,67.97
2019-02-05T22:50:41.813Z,67.50
2019-02-05T22:53:12.199Z,65.50
2019-02-05T22:55:42.467Z,64.32
2019-02-05T22:58:12.790Z,60.77
2019-02-05T23:01:22.271Z,65.93
2019-02-05T23:04:04.094Z,67.10
2019-02-05T23:07:01.514Z,69.17
2019-02-05T23:10:15.991Z,67.43
2019-02-05T23:13:11.180Z,67.63
2019-02-05T23:15:45.712Z,67.27
2019-02-05T23:18:16.161Z,65.20
2019-02-05T23:20:46.607Z,68.53
2019-02-05T23:23:16.909Z,67.23
2019-02-05T23:25:47.157Z,67.37
2019-02-05T23:28:17.548Z,67.73
2019-02-05T23:30:47.785Z,68.97
2019-02-05T23:33:18.044Z,65.07
2019-02-05T23:35:48.356Z,62.10
2019-02-05T23:38:18.926Z,63.90
2019-02-05T23:40:49.588Z,62.38
2019-02-05T23:43:19.995Z,63.77
2019-02-05T23:46:00.989Z,64.20
2019-02-05T23:48:23.293Z,65.13
2019-02-05T23:50:53.547Z,65.20
2019-02-05T23:53:23.860Z,64.63
2019-02-05T23:55:58.118Z,63.43
2019-02-05T23:58:30.204Z,62.30
